createdAt,value
2023-03-07T00:02:08.150Z,39.72
2023-03-07T00:04:33.822Z,39.82
2023-03-07T00:06:59.572Z,39.83
2023-03-07T00:09:25.258Z,39.67
2023-03-07T00:11:50.945Z,39.71
2023-03-07T00:14:16.693Z,39.90
2023-03-07T00:16:42.334Z,39.85
2023-03-07T00:19:07.975Z,39.74
2023-03-07T00:21:33.625Z,39.64
2023-03-07T00:23:59.326Z,39.57
2023-03-07T00:26:26.385Z,39.71
2023-03-07T00:28:53.251Z,39.65
2023-03-07T00:31:19.782Z,39.77
2023-03-07T00:33:45.906Z,39.79
2023-03-07T00:36:15.336Z,39.54
2023-03-07T00:38:41.628Z,39.76
2023-03-07T00:41:09.779Z,39.61
2023-03-07T00:43:35.884Z,39.51
2023-03-07T00:46:02.211Z,39.79
2023-03-07T00:48:28.252Z,39.76
2023-03-07T00:50:54.405Z,39.66
2023-03-07T00:53:20.501Z,39.61
2023-03-07T00:56:13.080Z,39.75
2023-03-07T00:58:38.992Z,39.78
2023-03-07T01:01:06.030Z,39.79
2023-03-07T01:03:32.465Z,39.65
2023-03-07T01:06:01.775Z,39.51
2023-03-07T01:08:27.425Z,39.55
2023-03-07T01:10:58.359Z,39.63
2023-03-07T01:13:23.987Z,39.58
2023-03-07T01:15:49.629Z,39.59
2023-03-07T01:18:15.323Z,39.63
2023-03-07T01:20:41.256Z,39.34
2023-03-07T01:23:07.209Z,39.51
2023-03-07T01:25:40.354Z,39.81
2023-03-07T01:28:06.751Z,39.87
2023-03-07T01:30:32.952Z,39.60
2023-03-07T01:32:59.414Z,39.59
2023-03-07T01:35:25.817Z,39.47
2023-03-07T01:37:52.067Z,39.70
2023-03-07T01:40:19.201Z,39.58
2023-03-07T01:42:44.927Z,39.58
2023-03-07T01:47:48.779Z,39.61
2023-03-07T01:50:16.134Z,39.66
2023-03-07T01:52:45.509Z,39.49
2023-03-07T01:55:15.696Z,39.64
2023-03-07T01:57:42.754Z,39.37
2023-03-07T02:00:12.764Z,39.57
2023-03-07T02:02:40.554Z,39.74
2023-03-07T02:05:18.096Z,39.47
2023-03-07T02:07:48.347Z,39.41
2023-03-07T02:10:15.405Z,39.31
2023-03-07T02:12:41.069Z,39.50
2023-03-07T02:15:09.070Z,39.58
2023-03-07T02:17:35.275Z,39.64
2023-03-07T02:20:31.219Z,39.50
2023-03-07T02:22:56.964Z,39.44
2023-03-07T02:25:30.992Z,39.35
2023-03-07T02:27:57.513Z,39.42
2023-03-07T02:30:23.216Z,39.53
2023-03-07T02:32:48.857Z,39.45
2023-03-07T02:35:21.800Z,39.66
2023-03-07T02:37:51.332Z,39.42
2023-03-07T02:40:19.549Z,39.51
2023-03-07T02:42:45.453Z,39.48
2023-03-07T02:45:14.172Z,39.39
2023-03-07T02:47:42.384Z,39.50
2023-03-07T02:50:08.578Z,39.58
2023-03-07T02:52:34.213Z,39.52
2023-03-07T02:54:59.977Z,39.58
2023-03-07T02:57:25.670Z,39.45
2023-03-07T02:59:51.333Z,39.57
2023-03-07T03:02:17.021Z,39.58
2023-03-07T03:04:42.683Z,39.42
2023-03-07T03:07:08.565Z,39.57
2023-03-07T03:09:34.256Z,39.55
2023-03-07T03:11:59.924Z,39.48
2023-03-07T03:14:25.580Z,39.44
2023-03-07T03:16:51.981Z,39.32
2023-03-07T03:19:17.669Z,39.36
2023-03-07T03:21:43.331Z,39.58
2023-03-07T03:24:09.552Z,39.37
2023-03-07T03:26:36.184Z,39.50
2023-03-07T03:29:03.075Z,39.53
2023-03-07T03:31:29.566Z,39.36
2023-03-07T03:33:55.733Z,39.49
2023-03-07T03:36:24.933Z,39.62
2023-03-07T03:38:52.671Z,39.27
2023-03-07T03:41:18.330Z,39.72
2023-03-07T03:43:44.049Z,39.33
2023-03-07T03:46:09.841Z,39.48
2023-03-07T03:48:35.505Z,39.54
2023-03-07T03:51:04.358Z,39.32
2023-03-07T03:53:31.304Z,39.55
2023-03-07T03:56:01.746Z,39.41
2023-03-07T03:58:27.539Z,39.34
2023-03-07T04:00:53.191Z,39.47
2023-03-07T04:03:18.830Z,39.41
2023-03-07T04:05:44.520Z,39.65
2023-03-07T04:08:10.224Z,39.48
2023-03-07T04:10:35.869Z,39.46
2023-03-07T04:13:01.506Z,39.41
2023-03-07T04:15:27.151Z,39.23
2023-03-07T04:17:52.793Z,39.49
2023-03-07T04:20:18.502Z,39.42
2023-03-07T04:22:44.167Z,39.36
2023-03-07T04:25:10.032Z,39.24
2023-03-07T04:27:35.667Z,39.45
2023-03-07T04:30:01.371Z,39.56
2023-03-07T04:32:27.036Z,39.42
2023-03-07T04:34:52.686Z,39.49
2023-03-07T04:37:18.316Z,39.56
2023-03-07T04:39:43.956Z,39.56
2023-03-07T04:42:09.612Z,39.57
2023-03-07T04:44:35.248Z,39.49
2023-03-07T04:47:00.891Z,39.42
2023-03-07T04:49:26.531Z,39.46
2023-03-07T04:51:52.180Z,39.49
2023-03-07T04:54:17.837Z,39.31
2023-03-07T04:56:43.492Z,39.57
2023-03-07T04:59:09.129Z,39.25
2023-03-07T05:01:34.808Z,39.29
2023-03-07T05:04:00.504Z,39.51
2023-03-07T05:06:26.478Z,39.38
2023-03-07T05:08:52.113Z,39.58
2023-03-07T05:11:17.792Z,39.32
2023-03-07T05:13:43.445Z,39.20
2023-03-07T05:16:09.201Z,39.41
2023-03-07T05:18:34.972Z,39.43
2023-03-07T05:21:00.700Z,39.36
2023-03-07T05:23:26.339Z,39.35
2023-03-07T05:25:52.010Z,39.43
2023-03-07T05:28:18.228Z,39.19
2023-03-07T05:30:45.429Z,39.34
2023-03-07T05:33:11.337Z,39.28
2023-03-07T05:35:38.241Z,39.40
2023-03-07T05:38:04.222Z,39.45
2023-03-07T05:40:29.954Z,39.44
2023-03-07T05:42:55.607Z,39.42
2023-03-07T05:45:21.534Z,39.37
2023-03-07T05:47:47.197Z,39.18
2023-03-07T05:50:12.875Z,39.54
2023-03-07T05:52:39.269Z,39.36
2023-03-07T05:55:06.112Z,39.51
2023-03-07T05:57:31.770Z,39.37
2023-03-07T05:59:57.427Z,39.59
2023-03-07T06:02:23.112Z,39.41
2023-03-07T06:04:48.886Z,39.42
2023-03-07T06:07:14.540Z,39.12
2023-03-07T06:09:40.191Z,39.49
2023-03-07T06:12:06.045Z,39.38
2023-03-07T06:14:31.921Z,39.28
2023-03-07T06:16:57.615Z,39.42
2023-03-07T06:19:23.268Z,39.29
2023-03-07T06:21:48.917Z,39.39
2023-03-07T06:24:14.562Z,39.70
2023-03-07T06:26:40.226Z,39.87
2023-03-07T06:29:05.888Z,41.17
2023-03-07T06:31:31.700Z,42.34
2023-03-07T06:33:57.750Z,43.56
2023-03-07T06:36:23.444Z,43.45
2023-03-07T06:38:49.082Z,43.37
2023-03-07T06:41:14.857Z,42.85
2023-03-07T06:43:40.597Z,43.17
2023-03-07T06:46:06.311Z,42.92
2023-03-07T06:48:33.953Z,42.22
2023-03-07T06:51:05.086Z,42.72
2023-03-07T06:53:30.730Z,42.26
2023-03-07T06:55:56.380Z,42.35
2023-03-07T06:58:22.015Z,42.25
2023-03-07T07:00:47.661Z,42.15
2023-03-07T07:03:14.327Z,42.09
2023-03-07T07:05:40.123Z,42.19
2023-03-07T07:08:05.942Z,41.92
2023-03-07T07:10:31.650Z,42.02
2023-03-07T07:12:57.281Z,41.99
2023-03-07T07:15:23.749Z,41.87
2023-03-07T07:17:50.953Z,41.81
2023-03-07T07:20:16.707Z,41.49
2023-03-07T07:22:42.340Z,41.71
2023-03-07T07:25:08.455Z,41.91
2023-03-07T07:27:35.769Z,41.80
2023-03-07T07:30:02.956Z,41.26
2023-03-07T07:32:28.718Z,41.70
2023-03-07T07:34:54.430Z,41.38
2023-03-07T07:37:20.074Z,41.37
2023-03-07T07:39:45.761Z,41.13
2023-03-07T07:42:11.571Z,41.34
2023-03-07T07:44:37.252Z,41.14
2023-03-07T07:47:03.047Z,41.14
2023-03-07T07:49:28.723Z,41.20
2023-03-07T07:51:54.376Z,41.26
2023-03-07T07:54:20.048Z,41.10
2023-03-07T07:56:45.901Z,41.03
2023-03-07T07:59:11.828Z,41.20
2023-03-07T08:01:37.558Z,41.18
2023-03-07T08:04:03.356Z,41.12
2023-03-07T08:06:29.078Z,41.11
2023-03-07T08:08:55.087Z,41.24
2023-03-07T08:11:21.406Z,41.01
2023-03-07T08:13:47.387Z,41.02
2023-03-07T08:16:15.244Z,41.05
2023-03-07T08:18:41.863Z,41.04
2023-03-07T08:21:08.187Z,40.93
2023-03-07T08:23:34.725Z,40.96
2023-03-07T08:26:01.971Z,41.07
2023-03-07T08:28:27.647Z,41.15
2023-03-07T08:30:53.760Z,41.07
2023-03-07T08:33:19.449Z,40.67
2023-03-07T08:35:45.155Z,40.86
2023-03-07T08:38:10.811Z,40.86
2023-03-07T08:40:36.479Z,40.98
2023-03-07T08:43:02.145Z,41.05
2023-03-07T08:45:27.814Z,41.14
2023-03-07T08:47:54.130Z,41.14
2023-03-07T08:50:21.453Z,40.99
2023-03-07T08:52:47.146Z,40.98
2023-03-07T08:55:12.780Z,40.88
2023-03-07T08:57:38.565Z,41.26
2023-03-07T09:00:07.907Z,40.96
2023-03-07T09:02:33.566Z,40.65
2023-03-07T09:04:59.269Z,41.22
2023-03-07T09:07:24.993Z,42.93
2023-03-07T09:09:50.680Z,42.04
2023-03-07T09:12:16.331Z,41.74
2023-03-07T09:14:41.967Z,43.44
2023-03-07T09:17:07.635Z,42.33
2023-03-07T09:19:34.439Z,42.10
2023-03-07T09:22:00.178Z,42.00
2023-03-07T09:24:25.973Z,42.09
2023-03-07T09:26:52.187Z,41.85
2023-03-07T09:29:18.289Z,41.63
2023-03-07T09:31:44.057Z,41.49
2023-03-07T09:34:10.367Z,41.77
2023-03-07T09:36:36.465Z,41.74
2023-03-07T09:39:03.467Z,41.70
2023-03-07T09:41:56.006Z,42.64
2023-03-07T09:44:51.826Z,41.87
2023-03-07T09:47:42.125Z,41.63
2023-03-07T09:50:11.773Z,41.62
2023-03-07T09:52:39.043Z,41.50
2023-03-07T09:55:10.458Z,41.67
2023-03-07T09:57:55.044Z,41.46
2023-03-07T10:03:25.999Z,41.45
2023-03-07T10:05:54.024Z,41.31
2023-03-07T10:08:21.602Z,41.18
2023-03-07T10:11:03.188Z,41.40
2023-03-07T10:14:08.663Z,41.26
2023-03-07T10:16:46.087Z,41.26
2023-03-07T10:19:27.331Z,41.26
2023-03-07T10:25:07.814Z,41.34
2023-03-07T10:27:33.453Z,41.19
2023-03-07T10:30:01.004Z,41.18
2023-03-07T10:32:47.731Z,41.17
2023-03-07T10:35:18.357Z,41.04
2023-03-07T10:37:50.213Z,41.00
2023-03-07T10:40:38.622Z,41.41
2023-03-07T10:43:05.710Z,41.28
2023-03-07T10:45:32.418Z,41.29
2023-03-07T10:48:00.444Z,41.46
2023-03-07T10:50:33.782Z,41.19
2023-03-07T10:53:00.767Z,41.19
2023-03-07T10:55:33.913Z,41.01
2023-03-07T10:58:24.035Z,41.07
2023-03-07T11:01:14.572Z,40.91
2023-03-07T11:03:52.455Z,40.99
2023-03-07T11:06:40.804Z,41.06
2023-03-07T11:09:28.309Z,41.14
2023-03-07T11:11:57.812Z,41.07
2023-03-07T11:14:25.692Z,41.02
2023-03-07T11:16:57.975Z,40.99
2023-03-07T11:19:35.659Z,41.01
2023-03-07T11:22:05.385Z,41.15
2023-03-07T11:24:38.824Z,41.18
2023-03-07T11:27:05.180Z,40.91
2023-03-07T11:29:32.929Z,40.84
2023-03-07T11:32:11.614Z,41.01
2023-03-07T11:34:45.326Z,41.04
2023-03-07T11:37:38.677Z,40.76
2023-03-07T11:40:23.151Z,41.11
2023-03-07T11:45:50.445Z,41.33
2023-03-07T11:48:30.503Z,41.17
2023-03-07T11:50:57.239Z,40.79
2023-03-07T11:53:46.233Z,40.79
2023-03-07T11:56:21.099Z,41.15
2023-03-07T11:59:17.522Z,40.61
2023-03-07T12:01:54.695Z,41.04
2023-03-07T12:04:44.857Z,41.16
2023-03-07T12:10:35.181Z,40.78
2023-03-07T12:13:13.311Z,40.85
2023-03-07T12:15:49.361Z,40.83
2023-03-07T12:18:41.212Z,40.95
2023-03-07T12:21:19.135Z,40.78
2023-03-07T12:24:04.961Z,40.91
2023-03-07T12:26:45.233Z,41.42
2023-03-07T12:29:32.871Z,41.54
2023-03-07T12:32:00.096Z,41.79
2023-03-07T12:34:37.688Z,41.80
2023-03-07T12:37:07.030Z,41.63
2023-03-07T12:39:55.254Z,41.90
2023-03-07T12:42:44.264Z,41.50
2023-03-07T12:45:16.211Z,41.66
2023-03-07T12:51:05.249Z,41.61
2023-03-07T12:56:14.949Z,41.15
2023-03-07T12:59:03.908Z,41.50
2023-03-07T13:01:41.166Z,41.38
2023-03-07T13:04:26.687Z,41.15
2023-03-07T13:06:55.296Z,40.89
2023-03-07T13:09:23.230Z,41.17
2023-03-07T13:14:53.851Z,41.36
2023-03-07T13:20:34.684Z,41.02
2023-03-07T13:23:12.558Z,41.13
2023-03-07T13:25:43.904Z,40.93
2023-03-07T13:28:45.267Z,40.82
2023-03-07T13:33:52.881Z,41.13
2023-03-07T13:36:36.985Z,41.33
2023-03-07T13:39:02.980Z,41.43
2023-03-07T13:41:49.063Z,41.40
2023-03-07T13:44:36.905Z,41.28
2023-03-07T13:47:04.149Z,41.33
2023-03-07T13:49:35.319Z,41.17
2023-03-07T13:52:21.615Z,41.14
2023-03-07T13:54:48.783Z,41.09
2023-03-07T13:57:16.961Z,41.11
2023-03-07T13:59:47.477Z,41.21
2023-03-07T14:02:15.538Z,41.23
2023-03-07T14:04:53.562Z,41.26
2023-03-07T14:07:30.947Z,41.17
2023-03-07T14:10:23.052Z,40.95
2023-03-07T14:13:13.246Z,41.11
2023-03-07T14:15:56.193Z,40.84
2023-03-07T14:19:01.692Z,41.37
2023-03-07T14:21:51.745Z,41.08
2023-03-07T14:24:57.217Z,41.06
2023-03-07T14:27:22.860Z,41.17
2023-03-07T14:29:51.200Z,41.24
2023-03-07T14:32:25.252Z,41.14
2023-03-07T14:34:52.429Z,40.83
2023-03-07T14:37:22.611Z,40.65
2023-03-07T14:42:44.481Z,41.03
2023-03-07T14:45:17.311Z,41.13
2023-03-07T14:48:12.019Z,40.81
2023-03-07T14:50:43.203Z,41.11
2023-03-07T14:53:21.010Z,41.02
2023-03-07T14:55:48.353Z,40.82
2023-03-07T14:58:17.221Z,40.93
2023-03-07T15:00:42.869Z,41.12
2023-03-07T15:03:11.735Z,41.10
2023-03-07T15:05:48.108Z,41.18
2023-03-07T15:08:21.120Z,40.92
2023-03-07T15:10:49.425Z,40.86
2023-03-07T15:13:24.590Z,40.75
2023-03-07T15:15:54.348Z,41.02
2023-03-07T15:18:24.071Z,40.96
2023-03-07T15:20:51.169Z,40.91
2023-03-07T15:23:20.908Z,40.77
2023-03-07T15:25:46.980Z,40.75
2023-03-07T15:28:20.848Z,40.75
2023-03-07T15:30:48.862Z,40.81
2023-03-07T15:33:21.870Z,41.08
2023-03-07T15:36:10.350Z,40.75
2023-03-07T15:38:36.513Z,40.87
2023-03-07T15:41:02.190Z,40.83
2023-03-07T15:43:33.896Z,40.94
2023-03-07T15:46:03.340Z,40.73
2023-03-07T15:48:35.945Z,40.91
2023-03-07T15:51:05.539Z,40.70
2023-03-07T15:53:33.518Z,40.97
2023-03-07T15:56:02.598Z,41.05
2023-03-07T15:58:29.080Z,40.77
2023-03-07T16:01:17.483Z,40.98
2023-03-07T16:03:52.477Z,40.84
2023-03-07T16:06:42.435Z,40.99
2023-03-07T16:09:15.121Z,41.13
2023-03-07T16:11:41.046Z,40.98
2023-03-07T16:14:24.353Z,41.09
2023-03-07T16:16:50.054Z,41.07
2023-03-07T16:19:15.937Z,41.06
2023-03-07T16:21:41.580Z,40.83
2023-03-07T16:24:07.402Z,40.78
2023-03-07T16:26:33.105Z,40.91
2023-03-07T16:28:59.418Z,41.25
2023-03-07T16:31:25.591Z,41.13
2023-03-07T16:33:51.257Z,41.10
2023-03-07T16:36:17.138Z,41.00
2023-03-07T16:38:43.446Z,41.07
2023-03-07T16:41:16.150Z,41.27
2023-03-07T16:43:43.016Z,40.91
2023-03-07T16:46:13.484Z,41.12
2023-03-07T16:48:39.151Z,40.89
2023-03-07T16:51:05.093Z,41.03
2023-03-07T16:53:30.935Z,40.83
2023-03-07T16:55:57.803Z,40.80
2023-03-07T16:58:27.043Z,41.02
2023-03-07T17:00:52.927Z,40.85
2023-03-07T17:03:19.067Z,40.86
2023-03-07T17:05:44.770Z,40.90
2023-03-07T17:08:10.424Z,40.99
2023-03-07T17:10:36.719Z,40.85
2023-03-07T17:13:05.202Z,40.58
2023-03-07T17:15:31.508Z,40.75
2023-03-07T17:17:58.773Z,40.95
2023-03-07T17:20:24.464Z,41.10
2023-03-07T17:22:51.183Z,40.61
2023-03-07T17:25:16.951Z,40.61
2023-03-07T17:27:46.045Z,40.75
2023-03-07T17:30:18.586Z,40.77
2023-03-07T17:32:44.263Z,40.68
2023-03-07T17:35:10.808Z,40.65
2023-03-07T17:37:36.558Z,40.78
2023-03-07T17:40:09.204Z,40.83
2023-03-07T17:42:36.685Z,40.65
2023-03-07T17:45:03.736Z,40.75
2023-03-07T17:47:30.270Z,40.41
2023-03-07T17:49:56.016Z,40.49
2023-03-07T17:52:21.776Z,40.58
2023-03-07T17:54:47.967Z,40.55
2023-03-07T17:57:14.394Z,40.69
2023-03-07T17:59:40.111Z,40.73
2023-03-07T18:02:05.858Z,40.34
2023-03-07T18:04:32.109Z,40.62
2023-03-07T18:06:58.335Z,40.60
2023-03-07T18:09:25.650Z,40.71
2023-03-07T18:11:51.654Z,40.35
2023-03-07T18:14:17.814Z,40.61
2023-03-07T18:16:43.634Z,40.71
2023-03-07T18:19:23.912Z,40.61
2023-03-07T18:21:51.517Z,40.56
2023-03-07T18:24:20.180Z,40.56
2023-03-07T18:26:47.999Z,40.65
2023-03-07T18:29:13.663Z,40.77
2023-03-07T18:31:39.335Z,40.61
2023-03-07T18:34:05.071Z,40.43
2023-03-07T18:36:30.732Z,40.45
2023-03-07T18:38:56.641Z,40.66
2023-03-07T18:41:23.886Z,40.20
2023-03-07T18:43:49.604Z,40.75
2023-03-07T18:46:17.572Z,40.50
2023-03-07T18:48:43.464Z,40.47
2023-03-07T18:51:11.555Z,40.52
2023-03-07T18:53:37.884Z,40.58
2023-03-07T18:56:05.702Z,40.46
2023-03-07T18:58:31.961Z,40.47
2023-03-07T19:01:11.868Z,40.44
2023-03-07T19:03:37.551Z,40.68
2023-03-07T19:06:03.280Z,40.48
2023-03-07T19:08:29.081Z,40.58
2023-03-07T19:10:54.733Z,40.69
2023-03-07T19:13:20.405Z,40.47
2023-03-07T19:15:46.368Z,40.39
2023-03-07T19:18:12.016Z,40.39
2023-03-07T19:20:39.699Z,40.37
2023-03-07T19:23:05.365Z,40.51
2023-03-07T19:25:34.021Z,40.41
2023-03-07T19:27:59.658Z,40.46
2023-03-07T19:30:25.303Z,40.35
2023-03-07T19:32:50.992Z,40.38
2023-03-07T19:35:16.717Z,40.61
2023-03-07T19:37:42.359Z,40.62
2023-03-07T19:40:08.608Z,40.56
2023-03-07T19:42:34.498Z,40.71
2023-03-07T19:45:00.182Z,40.49
2023-03-07T19:47:25.837Z,40.44
2023-03-07T19:49:51.481Z,40.57
2023-03-07T19:52:17.141Z,40.31
2023-03-07T19:54:44.556Z,40.42
2023-03-07T19:57:13.964Z,40.51
2023-03-07T19:59:39.746Z,40.43
2023-03-07T20:02:05.927Z,40.39
2023-03-07T20:04:31.564Z,40.55
2023-03-07T20:06:57.217Z,40.33
2023-03-07T20:09:22.854Z,40.23
2023-03-07T20:11:48.517Z,40.32
2023-03-07T20:14:14.260Z,40.41
2023-03-07T20:16:40.210Z,40.72
2023-03-07T20:19:07.863Z,40.44
2023-03-07T20:21:35.553Z,40.42
2023-03-07T20:24:01.325Z,40.42
2023-03-07T20:26:30.715Z,40.32
2023-03-07T20:28:56.970Z,40.31
2023-03-07T20:31:22.729Z,40.59
2023-03-07T20:33:48.623Z,40.48
2023-03-07T20:36:20.433Z,40.51
2023-03-07T20:38:49.161Z,40.43
2023-03-07T20:41:15.976Z,40.51
2023-03-07T20:43:41.762Z,40.40
2023-03-07T20:46:12.496Z,40.38
2023-03-07T20:48:38.940Z,40.29
2023-03-07T20:51:15.289Z,40.51
2023-03-07T20:53:42.045Z,40.48
2023-03-07T20:56:07.803Z,40.36
2023-03-07T20:58:33.483Z,40.19
2023-03-07T21:00:59.874Z,40.38
2023-03-07T21:03:25.965Z,40.53
2023-03-07T21:05:53.123Z,40.25
2023-03-07T21:08:18.758Z,40.27
2023-03-07T21:10:44.409Z,40.40
2023-03-07T21:13:12.160Z,40.32
2023-03-07T21:15:41.064Z,40.39
2023-03-07T21:18:07.801Z,40.39
2023-03-07T21:20:35.899Z,40.10
2023-03-07T21:23:01.729Z,40.40
2023-03-07T21:25:27.389Z,40.59
2023-03-07T21:27:53.037Z,40.57
2023-03-07T21:30:18.683Z,40.17
2023-03-07T21:32:44.434Z,40.28
2023-03-07T21:35:10.643Z,40.65
2023-03-07T21:37:36.741Z,40.28
2023-03-07T21:40:04.458Z,40.47
2023-03-07T21:42:30.444Z,40.20
2023-03-07T21:44:56.153Z,40.55
2023-03-07T21:47:22.777Z,40.40
2023-03-07T21:49:48.471Z,40.09
2023-03-07T21:52:14.345Z,40.48
2023-03-07T21:54:39.972Z,40.34
2023-03-07T21:57:06.032Z,40.23
2023-03-07T21:59:32.617Z,40.29
2023-03-07T22:01:58.306Z,40.18
2023-03-07T22:04:23.970Z,40.29
2023-03-07T22:06:50.850Z,40.18
2023-03-07T22:09:16.510Z,40.37
2023-03-07T22:11:42.274Z,40.49
2023-03-07T22:14:07.921Z,40.51
2023-03-07T22:16:33.628Z,40.24
2023-03-07T22:18:59.342Z,40.12
2023-03-07T22:21:25.510Z,40.34
2023-03-07T22:23:56.731Z,40.37
2023-03-07T22:26:22.500Z,40.32
2023-03-07T22:28:48.166Z,40.51
2023-03-07T22:31:13.803Z,40.48
2023-03-07T22:33:40.073Z,40.39
2023-03-07T22:36:06.978Z,40.45
2023-03-07T22:38:32.913Z,40.42
2023-03-07T22:41:06.984Z,40.21
2023-03-07T22:43:34.069Z,40.14
2023-03-07T22:45:59.748Z,40.16
2023-03-07T22:48:26.032Z,40.34
2023-03-07T22:50:51.947Z,40.42
2023-03-07T22:53:17.602Z,40.26
2023-03-07T22:55:43.254Z,40.29
2023-03-07T22:58:09.897Z,40.33
2023-03-07T23:00:36.398Z,40.46
2023-03-07T23:03:02.181Z,40.35
2023-03-07T23:05:30.499Z,40.29
2023-03-07T23:07:56.152Z,40.35
2023-03-07T23:10:21.803Z,40.62
2023-03-07T23:12:49.733Z,40.26
2023-03-07T23:15:15.803Z,40.41
2023-03-07T23:17:41.472Z,40.47
2023-03-07T23:20:08.074Z,40.26
2023-03-07T23:22:33.739Z,40.48
2023-03-07T23:24:59.397Z,40.31
2023-03-07T23:27:25.048Z,40.62
2023-03-07T23:29:50.685Z,40.41
2023-03-07T23:32:16.364Z,40.71
2023-03-07T23:34:42.076Z,40.39
2023-03-07T23:37:07.781Z,40.55
2023-03-07T23:39:33.427Z,40.48
2023-03-07T23:41:59.086Z,40.31
2023-03-07T23:44:24.759Z,40.46
2023-03-07T23:46:50.396Z,40.52
2023-03-07T23:49:16.069Z,40.34
2023-03-07T23:51:43.759Z,40.23
2023-03-07T23:54:09.525Z,40.37
2023-03-07T23:56:35.283Z,40.11
2023-03-07T23:59:00.945Z,40.54
